Time;durP1;ratioP1;P1;durP2;ratioP2;P2;SDS_P1;SDS_P2;PMS_P1;PMS_P2;Temp;Humidity;BMP_temperature;BMP_pressure;BME280_temperature;BME280_humidity;BME280_pressure;Samples;Min_cycle;Max_cycle;Signal;HPM_P1;HPM_P2
2023/05/02 00:00:15;;;;;;;26.48;12.52;;;;;;;;;;5060863;28;20135;-74
2023/05/02 00:02:41;;;;;;;23.20;13.35;;;;;;;;;;5032544;28;20567;-74
2023/05/02 00:05:08;;;;;;;26.90;12.43;;;;;;;;;;5045274;28;20041;-73
2023/05/02 00:07:34;;;;;;;29.33;12.98;;;;;;;;;;5049443;28;20112;-74
2023/05/02 00:10:01;;;;;;;25.45;11.90;;;;;;;;;;5052232;28;20071;-74
2023/05/02 00:12:27;;;;;;;24.13;11.02;;;;;;;;;;5036666;28;20036;-74
2023/05/02 00:14:53;;;;;;;26.63;11.48;;;;;;;;;;5049462;28;20528;-74
2023/05/02 00:17:20;;;;;;;20.90;9.45;;;;;;;;;;5043977;28;20158;-75
2023/05/02 00:19:46;;;;;;;17.85;9.13;;;;;;;;;;5066963;28;20503;-74
2023/05/02 00:22:12;;;;;;;14.63;6.90;;;;;;;;;;5070119;28;20044;-74
2023/05/02 00:24:38;;;;;;;14.07;7.53;;;;;;;;;;5050823;28;20054;-75
2023/05/02 00:27:05;;;;;;;18.33;7.88;;;;;;;;;;5063307;28;20055;-74
2023/05/02 00:29:31;;;;;;;11.98;7.43;;;;;;;;;;5047632;28;20135;-75
2023/05/02 00:31:57;;;;;;;15.07;6.95;;;;;;;;;;5046341;28;20140;-75
2023/05/02 00:34:23;;;;;;;17.50;6.00;;;;;;;;;;5050410;28;20048;-75
2023/05/02 00:36:49;;;;;;;15.48;6.78;;;;;;;;;;5055111;28;20889;-74
2023/05/02 00:39:15;;;;;;;13.20;6.03;;;;;;;;;;5046636;28;20044;-74
2023/05/02 00:41:41;;;;;;;12.25;7.13;;;;;;;;;;5051777;28;20061;-75
2023/05/02 00:44:07;;;;;;;13.00;6.80;;;;;;;;;;5074510;28;20052;-74
2023/05/02 00:46:34;;;;;;;10.27;5.50;;;;;;;;;;5050389;28;20059;-73
2023/05/02 00:49:00;;;;;;;11.48;5.30;;;;;;;;;;5063333;28;20109;-73
2023/05/02 00:51:27;;;;;;;12.45;5.68;;;;;;;;;;5049434;28;20127;-74
2023/05/02 00:53:53;;;;;;;12.18;6.00;;;;;;;;;;5068878;28;20123;-74
2023/05/02 00:56:20;;;;;;;8.38;4.90;;;;;;;;;;5054398;28;20040;-74
2023/05/02 00:58:46;;;;;;;13.73;5.88;;;;;;;;;;5072852;28;20369;-75
2023/05/02 01:01:31;;;;;;;11.50;5.50;;;;;;;;;;5046216;28;20130;-73
2023/05/02 01:04:16;;;;;;;11.82;6.03;;;;;;;;;;5053744;28;20055;-74
2023/05/02 01:06:42;;;;;;;12.10;6.13;;;;;;;;;;5054145;28;20059;-75
2023/05/02 01:09:08;;;;;;;15.60;6.00;;;;;;;;;;5063770;28;20480;-73
2023/05/02 01:11:40;;;;;;;14.15;6.20;;;;;;;;;;5050305;28;20062;-75
2023/05/02 01:14:08;;;;;;;11.43;5.90;;;;;;;;;;5067221;28;20376;-74
2023/05/02 01:16:37;;;;;;;16.63;6.20;;;;;;;;;;5053956;28;20433;-74
2023/05/02 01:19:05;;;;;;;15.02;6.32;;;;;;;;;;5045471;28;20560;-75
2023/05/02 01:21:32;;;;;;;15.23;5.72;;;;;;;;;;5045245;28;20127;-74
2023/05/02 01:24:13;;;;;;;14.55;6.30;;;;;;;;;;5063091;28;20105;-75
2023/05/02 01:26:51;;;;;;;15.35;5.78;;;;;;;;;;5060699;28;20068;-75
2023/05/02 01:29:17;;;;;;;14.48;6.55;;;;;;;;;;5067562;28;20150;-74
2023/05/02 01:31:45;;;;;;;15.68;6.25;;;;;;;;;;5066981;28;20033;-75
2023/05/02 01:34:12;;;;;;;12.20;6.20;;;;;;;;;;5050376;28;20036;-75
2023/05/02 01:36:42;;;;;;;13.13;5.55;;;;;;;;;;5066726;28;20051;-75
2023/05/02 01:39:09;;;;;;;14.63;5.57;;;;;;;;;;5050409;28;20482;-75
2023/05/02 01:41:36;;;;;;;12.00;5.18;;;;;;;;;;5033867;28;20052;-74
2023/05/02 01:44:03;;;;;;;12.02;5.53;;;;;;;;;;5065541;28;20047;-74
2023/05/02 01:46:31;;;;;;;11.52;5.55;;;;;;;;;;5067124;28;20084;-74
2023/05/02 01:48:58;;;;;;;12.80;5.60;;;;;;;;;;5056246;28;20072;-74
2023/05/02 01:51:29;;;;;;;14.23;5.30;;;;;;;;;;5071210;28;20297;-74
2023/05/02 01:53:56;;;;;;;14.88;5.53;;;;;;;;;;5074030;28;20048;-75
2023/05/02 01:56:24;;;;;;;14.32;6.03;;;;;;;;;;5051756;28;20042;-76
2023/05/02 01:58:51;;;;;;;12.50;4.95;;;;;;;;;;5054193;28;20109;-73
2023/05/02 02:01:17;;;;;;;13.10;5.28;;;;;;;;;;5054213;28;20450;-74
2023/05/02 02:03:44;;;;;;;19.08;5.07;;;;;;;;;;5056844;28;20123;-74
2023/05/02 02:06:11;;;;;;;26.63;5.93;;;;;;;;;;5066733;28;20051;-75
2023/05/02 02:08:37;;;;;;;23.35;5.35;;;;;;;;;;5070937;28;20079;-73
2023/05/02 02:11:07;;;;;;;23.58;4.97;;;;;;;;;;5073013;28;20075;-76
2023/05/02 02:13:35;;;;;;;37.80;6.53;;;;;;;;;;5053712;28;20123;-75
2023/05/02 02:16:03;;;;;;;24.05;6.28;;;;;;;;;;5055938;28;20381;-74
2023/05/02 02:18:32;;;;;;;33.67;6.45;;;;;;;;;;5049855;28;20488;-75
2023/05/02 02:20:59;;;;;;;34.55;6.40;;;;;;;;;;5053654;28;20105;-75
2023/05/02 02:23:27;;;;;;;36.90;7.18;;;;;;;;;;5048684;28;20129;-74
2023/05/02 02:25:55;;;;;;;32.72;7.68;;;;;;;;;;5072057;28;20065;-75
2023/05/02 02:28:21;;;;;;;30.25;7.05;;;;;;;;;;5046268;28;20056;-74
2023/05/02 02:30:47;;;;;;;38.08;7.47;;;;;;;;;;5058160;28;20063;-74
2023/05/02 02:33:13;;;;;;;34.78;7.95;;;;;;;;;;5067805;28;20848;-75
2023/05/02 02:35:42;;;;;;;31.35;7.03;;;;;;;;;;5055060;28;20059;-74
2023/05/02 02:38:32;;;;;;;31.45;7.22;;;;;;;;;;5053945;28;20052;-75
2023/05/02 02:41:06;;;;;;;32.63;7.25;;;;;;;;;;5050485;28;20054;-74
2023/05/02 02:43:47;;;;;;;30.70;6.45;;;;;;;;;;5054187;28;20074;-73
2023/05/02 02:46:19;;;;;;;35.17;7.18;;;;;;;;;;5068077;28;20068;-74
2023/05/02 02:48:49;;;;;;;33.60;7.53;;;;;;;;;;5061275;28;20055;-75
2023/05/02 02:51:41;;;;;;;34.80;7.00;;;;;;;;;;5066976;28;20039;-75
2023/05/02 02:54:10;;;;;;;32.47;6.93;;;;;;;;;;5063988;28;20064;-76
2023/05/02 02:56:38;;;;;;;31.95;6.90;;;;;;;;;;5075930;28;20696;-74
2023/05/02 02:59:06;;;;;;;27.98;6.90;;;;;;;;;;5075474;28;20033;-75
2023/05/02 03:01:33;;;;;;;31.50;6.43;;;;;;;;;;5054485;28;20043;-76
2023/05/02 03:04:00;;;;;;;30.92;6.80;;;;;;;;;;5056010;28;20423;-76
2023/05/02 03:06:26;;;;;;;30.42;6.03;;;;;;;;;;5049674;28;20044;-75
2023/05/02 03:08:52;;;;;;;37.08;7.63;;;;;;;;;;5066383;28;20158;-73
2023/05/02 03:11:18;;;;;;;34.55;6.70;;;;;;;;;;5057785;28;20147;-74
2023/05/02 03:13:44;;;;;;;32.80;7.55;;;;;;;;;;5080784;28;20510;-75
2023/05/02 03:16:49;;;;;;;28.17;6.15;;;;;;;;;;5049134;28;20040;-74
2023/05/02 03:19:15;;;;;;;27.00;5.97;;;;;;;;;;4975743;28;20049;-73
2023/05/02 03:21:42;;;;;;;25.70;6.35;;;;;;;;;;4954796;28;20476;-75
2023/05/02 03:24:08;;;;;;;32.13;6.50;;;;;;;;;;5006116;28;20075;-75
2023/05/02 03:26:34;;;;;;;28.27;5.97;;;;;;;;;;5054541;28;20399;-74
2023/05/02 03:29:00;;;;;;;30.77;6.43;;;;;;;;;;5048856;28;20048;-74
2023/05/02 03:31:26;;;;;;;28.70;5.90;;;;;;;;;;5073008;28;20094;-75
2023/05/02 03:33:52;;;;;;;30.38;6.45;;;;;;;;;;5039729;28;20945;-73
2023/05/02 03:36:18;;;;;;;26.38;5.50;;;;;;;;;;5052461;28;20042;-74
2023/05/02 03:38:44;;;;;;;30.10;5.97;;;;;;;;;;5054624;28;20084;-74
2023/05/02 03:41:10;;;;;;;27.23;5.40;;;;;;;;;;5050212;28;20067;-74
2023/05/02 03:43:36;;;;;;;26.67;5.57;;;;;;;;;;5051438;28;20460;-75
2023/05/02 03:46:10;;;;;;;28.98;5.30;;;;;;;;;;5044165;28;20074;-74
2023/05/02 03:48:36;;;;;;;21.05;4.93;;;;;;;;;;5051490;28;20052;-74
2023/05/02 03:51:03;;;;;;;21.80;4.43;;;;;;;;;;5051152;28;20036;-75
2023/05/02 03:53:30;;;;;;;19.45;4.90;;;;;;;;;;5066772;28;20075;-75
2023/05/02 03:55:56;;;;;;;21.13;4.40;;;;;;;;;;5052564;28;20081;-75
2023/05/02 03:58:24;;;;;;;19.90;4.78;;;;;;;;;;5071775;28;20558;-74
2023/05/02 04:00:51;;;;;;;17.85;4.30;;;;;;;;;;5069357;28;20041;-75
2023/05/02 04:03:17;;;;;;;15.57;3.90;;;;;;;;;;5068031;28;20064;-74
2023/05/02 04:05:44;;;;;;;16.83;4.03;;;;;;;;;;5046290;28;20090;-74
2023/05/02 04:08:10;;;;;;;18.92;3.33;;;;;;;;;;5068180;28;20059;-75
2023/05/02 04:10:36;;;;;;;17.25;3.70;;;;;;;;;;5051973;28;20438;-75
2023/05/02 04:13:03;;;;;;;16.48;3.80;;;;;;;;;;5060273;28;20044;-76
2023/05/02 04:15:29;;;;;;;14.25;3.33;;;;;;;;;;5051291;28;20101;-75
2023/05/02 04:17:57;;;;;;;14.73;3.20;;;;;;;;;;5048626;28;20460;-75
2023/05/02 04:20:23;;;;;;;16.00;3.67;;;;;;;;;;5066507;28;20052;-75
2023/05/02 04:22:49;;;;;;;15.77;3.95;;;;;;;;;;5050608;28;20048;-76
2023/05/02 04:25:15;;;;;;;11.95;3.05;;;;;;;;;;5068148;28;20040;-74
2023/05/02 04:27:42;;;;;;;14.32;3.15;;;;;;;;;;5067328;28;20044;-75
2023/05/02 04:30:09;;;;;;;13.60;3.13;;;;;;;;;;5049052;28;20449;-74
2023/05/02 04:32:35;;;;;;;11.93;3.22;;;;;;;;;;5064736;28;20043;-75
2023/05/02 04:35:01;;;;;;;14.75;3.10;;;;;;;;;;5056962;28;20068;-74
2023/05/02 04:37:27;;;;;;;12.38;3.03;;;;;;;;;;5066845;28;21014;-74
2023/05/02 04:39:53;;;;;;;12.77;3.10;;;;;;;;;;5073904;28;20134;-75
2023/05/02 04:42:19;;;;;;;15.23;2.90;;;;;;;;;;5069781;28;20052;-75
2023/05/02 04:44:45;;;;;;;12.50;3.15;;;;;;;;;;5079196;28;20056;-75
2023/05/02 04:47:11;;;;;;;15.23;3.10;;;;;;;;;;5067227;28;20056;-75
2023/05/02 04:49:37;;;;;;;12.63;2.92;;;;;;;;;;5057172;28;20058;-75
2023/05/02 04:52:03;;;;;;;9.38;2.63;;;;;;;;;;5054037;28;20097;-74
2023/05/02 04:54:29;;;;;;;8.55;2.30;;;;;;;;;;5053073;28;20033;-74
2023/05/02 04:56:55;;;;;;;11.18;3.00;;;;;;;;;;5048452;28;20043;-74
2023/05/02 04:59:21;;;;;;;8.40;2.60;;;;;;;;;;5032674;28;20162;-74
2023/05/02 05:01:47;;;;;;;12.15;2.80;;;;;;;;;;5066914;28;20708;-75
2023/05/02 05:04:13;;;;;;;10.50;2.40;;;;;;;;;;5054539;28;20078;-75
2023/05/02 05:06:39;;;;;;;11.15;3.10;;;;;;;;;;5048444;28;20068;-74
2023/05/02 05:09:06;;;;;;;8.65;2.80;;;;;;;;;;5031723;28;20067;-74
2023/05/02 05:11:31;;;;;;;14.40;3.17;;;;;;;;;;5065526;28;20137;-76
2023/05/02 05:13:58;;;;;;;9.23;2.78;;;;;;;;;;5068388;28;20443;-74
2023/05/02 05:16:24;;;;;;;7.82;2.30;;;;;;;;;;5065798;28;20511;-75
2023/05/02 05:18:50;;;;;;;12.80;3.00;;;;;;;;;;5067643;28;20134;-75
2023/05/02 05:21:16;;;;;;;9.05;2.30;;;;;;;;;;5047354;28;20411;-74
2023/05/02 05:23:44;;;;;;;14.82;2.80;;;;;;;;;;5056617;28;20052;-74
2023/05/02 05:26:10;;;;;;;10.55;2.53;;;;;;;;;;5058563;28;21364;-74
2023/05/02 05:28:36;;;;;;;11.00;2.70;;;;;;;;;;5047693;28;20129;-75
2023/05/02 05:31:10;;;;;;;9.55;2.80;;;;;;;;;;5041691;28;20036;-76
2023/05/02 05:33:37;;;;;;;10.10;2.80;;;;;;;;;;5053238;28;20040;-74
2023/05/02 05:36:07;;;;;;;10.30;3.00;;;;;;;;;;5036585;28;20055;-74
2023/05/02 05:38:33;;;;;;;17.70;3.38;;;;;;;;;;5045595;28;20130;-73
2023/05/02 05:41:00;;;;;;;11.05;3.35;;;;;;;;;;5075547;28;20040;-74
2023/05/02 05:43:26;;;;;;;9.35;2.75;;;;;;;;;;5056944;28;20044;-76
2023/05/02 05:45:52;;;;;;;15.18;3.47;;;;;;;;;;5049696;28;20048;-75
2023/05/02 05:48:18;;;;;;;13.15;3.60;;;;;;;;;;5063305;28;20083;-75
2023/05/02 05:50:45;;;;;;;20.13;3.55;;;;;;;;;;5064910;28;20404;-75
2023/05/02 05:53:11;;;;;;;16.20;4.70;;;;;;;;;;5068360;28;20043;-75
2023/05/02 05:55:37;;;;;;;12.70;3.13;;;;;;;;;;5050663;28;20039;-76
2023/05/02 05:58:04;;;;;;;14.43;3.78;;;;;;;;;;5057246;28;20734;-75
2023/05/02 06:00:31;;;;;;;18.13;4.47;;;;;;;;;;5045564;28;20101;-74
2023/05/02 06:02:57;;;;;;;15.50;3.90;;;;;;;;;;5055837;28;20036;-76
2023/05/02 06:05:23;;;;;;;18.33;3.70;;;;;;;;;;5064244;28;21494;-76
2023/05/02 06:07:49;;;;;;;15.10;4.20;;;;;;;;;;5051931;28;20540;-75
2023/05/02 06:10:15;;;;;;;13.32;3.90;;;;;;;;;;5062212;28;20044;-75
2023/05/02 06:12:41;;;;;;;15.73;4.35;;;;;;;;;;5050689;28;20048;-74
2023/05/02 06:15:07;;;;;;;15.48;3.83;;;;;;;;;;5044293;28;20044;-75
2023/05/02 06:17:33;;;;;;;14.85;3.78;;;;;;;;;;5067141;28;20047;-76
2023/05/02 06:19:59;;;;;;;15.43;3.80;;;;;;;;;;5044744;28;20049;-75
2023/05/02 06:22:25;;;;;;;16.85;4.10;;;;;;;;;;5045213;28;20075;-77
2023/05/02 06:24:51;;;;;;;16.40;3.55;;;;;;;;;;5065432;28;20454;-76
2023/05/02 06:27:17;;;;;;;13.32;3.42;;;;;;;;;;5046943;28;20052;-76
2023/05/02 06:29:43;;;;;;;14.23;4.10;;;;;;;;;;5064086;28;20073;-76
2023/05/02 06:32:09;;;;;;;13.48;3.58;;;;;;;;;;5069534;28;20056;-75
2023/05/02 06:34:36;;;;;;;19.13;4.13;;;;;;;;;;5067355;28;20101;-76
2023/05/02 06:37:01;;;;;;;13.23;3.78;;;;;;;;;;5066617;28;20101;-76
2023/05/02 06:39:28;;;;;;;11.63;3.30;;;;;;;;;;5054361;28;20057;-76
2023/05/02 06:41:57;;;;;;;15.13;3.78;;;;;;;;;;5056273;28;20131;-74
2023/05/02 06:44:24;;;;;;;15.88;3.58;;;;;;;;;;5073042;28;20048;-75
2023/05/02 06:46:50;;;;;;;9.40;3.30;;;;;;;;;;5058473;28;20055;-76
2023/05/02 06:49:16;;;;;;;9.90;3.38;;;;;;;;;;5051672;28;20043;-77
2023/05/02 06:51:42;;;;;;;14.25;3.53;;;;;;;;;;5053568;28;20040;-76
2023/05/02 06:54:08;;;;;;;13.02;3.33;;;;;;;;;;5051196;28;20194;-74
2023/05/02 06:56:34;;;;;;;15.40;3.42;;;;;;;;;;5052841;28;20436;-74
2023/05/02 06:59:01;;;;;;;13.65;3.92;;;;;;;;;;5070083;28;20024;-75
2023/05/02 07:01:27;;;;;;;13.07;3.50;;;;;;;;;;5056492;28;20146;-76
2023/05/02 07:03:53;;;;;;;13.25;3.70;;;;;;;;;;5077222;28;20501;-76
2023/05/02 07:06:19;;;;;;;11.70;3.65;;;;;;;;;;5075821;28;20685;-74
2023/05/02 07:08:45;;;;;;;10.85;3.80;;;;;;;;;;5058145;28;20123;-74
2023/05/02 07:11:11;;;;;;;14.00;3.50;;;;;;;;;;5052374;28;20488;-76
2023/05/02 07:13:37;;;;;;;17.40;4.18;;;;;;;;;;5053853;28;20044;-75
2023/05/02 07:16:03;;;;;;;15.07;3.55;;;;;;;;;;5047323;28;20391;-75
2023/05/02 07:18:29;;;;;;;12.18;3.80;;;;;;;;;;5072452;28;20127;-75
2023/05/02 07:20:55;;;;;;;13.80;3.67;;;;;;;;;;5052485;28;20672;-75
2023/05/02 07:23:21;;;;;;;12.43;3.72;;;;;;;;;;5071402;28;20048;-76
2023/05/02 07:25:47;;;;;;;16.17;3.90;;;;;;;;;;5054936;28;20044;-75
2023/05/02 07:28:14;;;;;;;11.82;3.30;;;;;;;;;;5048919;28;20047;-72
2023/05/02 07:30:40;;;;;;;14.18;3.33;;;;;;;;;;5049508;28;20052;-75
2023/05/02 07:33:06;;;;;;;14.00;3.72;;;;;;;;;;5070211;28;20147;-74
2023/05/02 07:35:32;;;;;;;14.57;4.20;;;;;;;;;;5075570;28;20032;-75
2023/05/02 07:37:58;;;;;;;9.38;2.92;;;;;;;;;;5052238;28;20792;-75
2023/05/02 07:40:24;;;;;;;18.02;3.90;;;;;;;;;;5074407;28;20051;-74
2023/05/02 07:42:50;;;;;;;11.55;3.10;;;;;;;;;;5051929;28;20139;-76
2023/05/02 07:45:16;;;;;;;8.10;3.17;;;;;;;;;;5050418;28;20040;-76
2023/05/02 07:47:42;;;;;;;14.20;4.00;;;;;;;;;;5054744;28;20122;-76
2023/05/02 07:50:08;;;;;;;19.75;4.20;;;;;;;;;;5045053;28;20096;-76
2023/05/02 07:52:34;;;;;;;14.05;3.70;;;;;;;;;;5057668;28;20055;-75
2023/05/02 07:55:00;;;;;;;10.85;3.30;;;;;;;;;;5033501;28;20469;-76
2023/05/02 07:57:26;;;;;;;10.32;3.33;;;;;;;;;;5034119;28;20697;-75
2023/05/02 07:59:55;;;;;;;12.25;3.50;;;;;;;;;;5054676;28;20063;-76
2023/05/02 08:02:22;;;;;;;11.48;3.20;;;;;;;;;;5049383;28;20173;-76
2023/05/02 08:04:48;;;;;;;13.05;3.25;;;;;;;;;;5054395;28;20047;-75
2023/05/02 08:07:15;;;;;;;9.38;3.22;;;;;;;;;;5052393;28;20052;-75
2023/05/02 08:09:41;;;;;;;11.35;3.00;;;;;;;;;;5068535;28;20400;-75
2023/05/02 08:12:07;;;;;;;11.05;3.58;;;;;;;;;;5055148;28;20036;-76
2023/05/02 08:14:33;;;;;;;11.35;3.50;;;;;;;;;;5071205;28;20092;-76
2023/05/02 08:16:59;;;;;;;13.13;3.42;;;;;;;;;;5072231;28;20092;-76
2023/05/02 08:19:26;;;;;;;13.65;3.33;;;;;;;;;;5067898;28;20083;-76
2023/05/02 08:21:58;;;;;;;13.18;3.53;;;;;;;;;;5054363;28;20083;-75
2023/05/02 08:24:28;;;;;;;10.48;3.00;;;;;;;;;;5053950;28;20055;-76
2023/05/02 08:26:57;;;;;;;19.13;4.28;;;;;;;;;;5059056;28;20058;-75
2023/05/02 08:29:32;;;;;;;11.57;3.00;;;;;;;;;;5067233;28;20052;-76
2023/05/02 08:32:01;;;;;;;13.90;3.20;;;;;;;;;;5054440;28;20044;-75
2023/05/02 08:34:32;;;;;;;;;;;;;;;;;;5055872;28;20056;-75
2023/05/02 08:37:01;;;;;;;8.13;3.22;;;;;;;;;;5054669;28;19957;-76
2023/05/02 08:39:31;;;;;;;9.10;3.10;;;;;;;;;;5072708;28;20063;-75
2023/05/02 08:41:57;;;;;;;8.88;2.90;;;;;;;;;;5048800;28;20047;-75
2023/05/02 08:44:26;;;;;;;7.43;2.30;;;;;;;;;;5055029;28;20040;-75
2023/05/02 08:46:54;;;;;;;6.53;2.55;;;;;;;;;;5050107;28;20458;-77
2023/05/02 08:49:20;;;;;;;6.78;2.00;;;;;;;;;;5069116;28;20166;-74
2023/05/02 08:51:50;;;;;;;4.50;1.58;;;;;;;;;;5053407;28;20439;-76
2023/05/02 08:54:25;;;;;;;3.05;1.50;;;;;;;;;;5057857;28;20086;-76
2023/05/02 08:56:55;;;;;;;9.95;2.40;;;;;;;;;;5046602;28;20059;-76
2023/05/02 08:59:22;;;;;;;9.05;1.60;;;;;;;;;;5049980;28;20582;-77
2023/05/02 09:01:49;;;;;;;6.95;2.33;;;;;;;;;;5047472;28;20043;-76
2023/05/02 09:04:15;;;;;;;6.35;1.50;;;;;;;;;;5067935;28;20052;-76
2023/05/02 09:06:41;;;;;;;4.38;1.30;;;;;;;;;;5072647;28;20036;-75
2023/05/02 09:09:07;;;;;;;3.88;1.80;;;;;;;;;;5048874;28;20051;-75
2023/05/02 09:11:33;;;;;;;7.38;1.55;;;;;;;;;;5065902;28;20032;-76
2023/05/02 09:14:02;;;;;;;3.75;1.30;;;;;;;;;;5042147;28;20085;-75
2023/05/02 09:16:29;;;;;;;4.50;1.30;;;;;;;;;;5048251;28;20818;-77
2023/05/02 09:18:56;;;;;;;5.57;1.40;;;;;;;;;;5073929;28;20043;-76
2023/05/02 09:21:24;;;;;;;4.53;1.42;;;;;;;;;;5047482;28;20044;-75
2023/05/02 09:23:51;;;;;;;5.63;1.75;;;;;;;;;;5030272;28;20045;-76
2023/05/02 09:26:17;;;;;;;7.45;1.55;;;;;;;;;;5067249;28;20053;-76
2023/05/02 09:28:45;;;;;;;4.68;1.50;;;;;;;;;;5072674;28;20035;-76
2023/05/02 09:31:12;;;;;;;6.88;1.50;;;;;;;;;;5069980;28;20036;-76
2023/05/02 09:33:38;;;;;;;6.65;1.75;;;;;;;;;;5040339;28;20047;-76
2023/05/02 09:36:06;;;;;;;8.45;1.70;;;;;;;;;;5044077;28;20073;-76
2023/05/02 09:38:32;;;;;;;6.13;1.50;;;;;;;;;;5031762;28;20036;-76
2023/05/02 09:40:59;;;;;;;4.32;1.60;;;;;;;;;;5050876;28;20039;-76
2023/05/02 09:43:26;;;;;;;5.80;1.45;;;;;;;;;;5038391;28;20047;-76
2023/05/02 09:45:59;;;;;;;6.18;1.60;;;;;;;;;;5066140;28;20052;-76
2023/05/02 09:48:26;;;;;;;6.07;1.40;;;;;;;;;;5054192;28;20167;-76
2023/05/02 09:50:52;;;;;;;7.03;1.52;;;;;;;;;;5050186;28;20047;-76
2023/05/02 09:53:18;;;;;;;4.82;1.40;;;;;;;;;;5053689;28;20040;-75
2023/05/02 09:55:44;;;;;;;6.03;2.17;;;;;;;;;;5045847;28;20040;-77
2023/05/02 09:58:24;;;;;;;3.78;1.92;;;;;;;;;;5047683;28;20139;-76
2023/05/02 10:00:53;;;;;;;6.95;2.00;;;;;;;;;;5048083;28;20056;-76
2023/05/02 10:03:20;;;;;;;7.15;2.00;;;;;;;;;;5068847;28;20770;-76
2023/05/02 10:05:46;;;;;;;7.35;1.60;;;;;;;;;;5067147;28;20425;-76
2023/05/02 10:08:16;;;;;;;7.78;1.90;;;;;;;;;;5066652;28;20039;-75
2023/05/02 10:10:49;;;;;;;4.80;1.83;;;;;;;;;;5057304;28;20079;-76
2023/05/02 10:13:16;;;;;;;8.15;2.25;;;;;;;;;;5047780;28;20028;-76
2023/05/02 10:15:43;;;;;;;11.25;2.20;;;;;;;;;;5072533;28;20690;-75
2023/05/02 10:18:13;;;;;;;5.72;1.75;;;;;;;;;;5056103;28;20051;-75
2023/05/02 10:20:43;;;;;;;8.18;1.75;;;;;;;;;;5055592;28;20048;-74
2023/05/02 10:23:10;;;;;;;8.57;2.08;;;;;;;;;;5058106;28;20098;-74
2023/05/02 10:25:36;;;;;;;7.63;1.85;;;;;;;;;;5053102;28;20636;-77
2023/05/02 10:28:02;;;;;;;5.88;1.88;;;;;;;;;;5056848;28;20052;-76
2023/05/02 10:30:29;;;;;;;5.10;1.50;;;;;;;;;;5070861;28;20147;-75
2023/05/02 10:32:58;;;;;;;5.43;1.65;;;;;;;;;;5052650;28;20531;-76
2023/05/02 10:35:25;;;;;;;3.53;1.30;;;;;;;;;;5073550;28;20189;-76
2023/05/02 10:37:51;;;;;;;6.82;1.80;;;;;;;;;;5039013;28;20052;-75
2023/05/02 10:40:17;;;;;;;4.07;1.33;;;;;;;;;;5049140;28;20143;-75
2023/05/02 10:42:45;;;;;;;4.45;1.30;;;;;;;;;;5049594;28;20052;-75
2023/05/02 10:45:31;;;;;;;5.28;1.73;;;;;;;;;;5055808;28;20572;-75
2023/05/02 10:48:16;;;;;;;6.38;1.38;;;;;;;;;;5047743;28;20439;-75
2023/05/02 10:50:46;;;;;;;8.65;1.88;;;;;;;;;;5054715;28;20052;-75
2023/05/02 10:53:22;;;;;;;4.10;1.40;;;;;;;;;;5050294;28;20072;-74
2023/05/02 10:56:07;;;;;;;7.57;1.45;;;;;;;;;;5053193;28;20059;-75
2023/05/02 10:58:33;;;;;;;6.18;1.60;;;;;;;;;;5051648;28;20051;-75
2023/05/02 11:01:18;;;;;;;5.70;1.50;;;;;;;;;;5049108;28;20054;-75
2023/05/02 11:03:59;;;;;;;6.03;1.30;;;;;;;;;;5076345;28;20770;-75
2023/05/02 11:06:26;;;;;;;5.65;1.38;;;;;;;;;;5054847;28;20047;-74
2023/05/02 11:08:52;;;;;;;3.03;1.35;;;;;;;;;;5057169;28;20135;-75
2023/05/02 11:11:37;;;;;;;5.13;1.58;;;;;;;;;;5052795;28;20447;-75
2023/05/02 11:14:03;;;;;;;4.05;1.60;;;;;;;;;;5038064;28;20135;-76
2023/05/02 11:16:49;;;;;;;11.05;1.45;;;;;;;;;;5059523;28;20139;-76
2023/05/02 11:19:15;;;;;;;5.40;1.70;;;;;;;;;;5070249;28;20040;-75
2023/05/02 11:21:41;;;;;;;8.82;1.67;;;;;;;;;;5072856;28;20044;-75
2023/05/02 11:24:26;;;;;;;6.40;1.80;;;;;;;;;;5036540;28;20040;-76
2023/05/02 11:26:54;;;;;;;4.35;1.40;;;;;;;;;;5036287;28;20055;-76
2023/05/02 11:29:40;;;;;;;2.78;1.38;;;;;;;;;;5036207;28;20091;-75
2023/05/02 11:32:07;;;;;;;7.90;1.27;;;;;;;;;;5035817;28;20087;-75
2023/05/02 11:34:39;;;;;;;7.55;1.80;;;;;;;;;;5072778;28;20543;-76
2023/05/02 11:37:12;;;;;;;4.78;1.45;;;;;;;;;;5034586;28;20047;-76
2023/05/02 11:39:39;;;;;;;7.18;1.67;;;;;;;;;;5053432;28;20052;-76
2023/05/02 11:42:05;;;;;;;6.13;1.70;;;;;;;;;;5070203;28;20076;-76
2023/05/02 11:44:31;;;;;;;8.63;1.67;;;;;;;;;;5056853;28;20517;-75
2023/05/02 11:46:57;;;;;;;8.50;2.63;;;;;;;;;;5053808;28;20048;-74
2023/05/02 11:49:23;;;;;;;5.40;1.65;;;;;;;;;;5038594;28;20111;-76
2023/05/02 11:51:49;;;;;;;6.18;1.60;;;;;;;;;;5070065;28;20060;-76
2023/05/02 11:54:20;;;;;;;6.75;1.40;;;;;;;;;;5059651;28;20491;-74
2023/05/02 11:56:47;;;;;;;7.80;1.52;;;;;;;;;;5050097;28;20059;-75
2023/05/02 11:59:13;;;;;;;5.15;1.77;;;;;;;;;;5075137;28;20547;-76
2023/05/02 12:01:52;;;;;;;5.50;1.30;;;;;;;;;;5050864;28;20131;-76
2023/05/02 12:04:22;;;;;;;5.28;1.60;;;;;;;;;;5058350;28;20369;-75
2023/05/02 12:06:55;;;;;;;6.55;1.52;;;;;;;;;;5050867;28;20123;-75
2023/05/02 12:09:21;;;;;;;4.97;1.40;;;;;;;;;;5057240;28;20052;-76
2023/05/02 12:11:53;;;;;;;4.70;1.40;;;;;;;;;;5052089;28;20637;-74
2023/05/02 12:14:32;;;;;;;4.50;1.52;;;;;;;;;;5070516;28;20100;-75
2023/05/02 12:16:58;;;;;;;;;;;;;;;;;;5040711;28;20044;-75
2023/05/02 12:19:25;;;;;;;7.50;1.48;;;;;;;;;;5043988;28;20391;-75
2023/05/02 12:21:51;;;;;;;6.45;1.48;;;;;;;;;;5063692;28;20068;-75
2023/05/02 12:24:17;;;;;;;6.47;1.60;;;;;;;;;;5071845;28;20863;-76
2023/05/02 12:26:43;;;;;;;6.07;1.50;;;;;;;;;;5045974;28;20044;-76
2023/05/02 12:29:09;;;;;;;5.35;1.50;;;;;;;;;;5075395;28;20073;-77
2023/05/02 12:31:35;;;;;;;5.88;1.35;;;;;;;;;;5035951;28;20551;-77
2023/05/02 12:34:01;;;;;;;5.13;1.65;;;;;;;;;;5060373;28;20055;-75
2023/05/02 12:36:28;;;;;;;4.75;1.40;;;;;;;;;;5075140;28;20093;-76
2023/05/02 12:38:56;;;;;;;6.38;1.42;;;;;;;;;;5052440;28;20562;-76
2023/05/02 12:41:31;;;;;;;6.60;1.40;;;;;;;;;;5054467;28;20044;-76
2023/05/02 12:43:59;;;;;;;7.00;1.20;;;;;;;;;;5041844;28;20048;-77
2023/05/02 12:46:27;;;;;;;4.55;1.00;;;;;;;;;;5044008;28;20053;-75
2023/05/02 12:49:08;;;;;;;4.30;0.80;;;;;;;;;;5053211;28;20068;-76
2023/05/02 12:51:34;;;;;;;2.58;0.93;;;;;;;;;;5034174;28;20533;-76
2023/05/02 12:54:00;;;;;;;2.15;0.93;;;;;;;;;;5030553;28;20582;-74
2023/05/02 12:56:31;;;;;;;12.90;8.55;;;;;;;;;;5050646;28;20076;-74
2023/05/02 12:59:03;;;;;;;3.85;1.10;;;;;;;;;;5044015;28;20073;-75
2023/05/02 13:01:30;;;;;;;4.28;0.95;;;;;;;;;;5044495;28;20060;-74
2023/05/02 13:03:56;;;;;;;6.43;2.75;;;;;;;;;;5046920;28;20757;-74
2023/05/02 13:06:22;;;;;;;3.33;0.82;;;;;;;;;;5052419;28;20076;-74
2023/05/02 13:08:48;;;;;;;2.78;0.70;;;;;;;;;;5071898;28;20047;-74
2023/05/02 13:11:14;;;;;;;5.20;1.10;;;;;;;;;;5046470;28;20408;-74
2023/05/02 13:13:40;;;;;;;3.65;0.80;;;;;;;;;;5048438;28;20250;-74
2023/05/02 13:16:06;;;;;;;3.60;0.70;;;;;;;;;;5043271;28;20542;-74
2023/05/02 13:18:32;;;;;;;4.38;1.25;;;;;;;;;;5044711;28;20044;-73
2023/05/02 13:20:58;;;;;;;1.80;0.80;;;;;;;;;;5055493;28;20078;-75
2023/05/02 13:23:24;;;;;;;4.25;0.75;;;;;;;;;;5047985;28;20159;-75
2023/05/02 13:25:50;;;;;;;4.30;0.90;;;;;;;;;;5069164;28;20582;-74
2023/05/02 13:28:17;;;;;;;2.90;1.00;;;;;;;;;;5051326;28;20504;-74
2023/05/02 13:30:43;;;;;;;3.42;1.02;;;;;;;;;;5064005;28;21776;-74
2023/05/02 13:33:09;;;;;;;3.03;0.77;;;;;;;;;;5043215;28;20048;-74
2023/05/02 13:35:35;;;;;;;3.75;0.80;;;;;;;;;;5057690;28;20126;-74
2023/05/02 13:38:02;;;;;;;3.05;0.70;;;;;;;;;;5060785;28;20525;-74
2023/05/02 13:40:28;;;;;;;1.30;0.55;;;;;;;;;;5063878;28;20061;-75
2023/05/02 13:42:54;;;;;;;5.10;1.25;;;;;;;;;;5064466;28;20135;-75
2023/05/02 13:45:20;;;;;;;5.82;1.10;;;;;;;;;;5059731;28;20155;-74
2023/05/02 13:47:45;;;;;;;6.95;1.10;;;;;;;;;;5073638;28;20052;-75
2023/05/02 13:50:16;;;;;;;5.65;1.30;;;;;;;;;;5072664;28;20046;-77
2023/05/02 13:52:42;;;;;;;4.72;1.40;;;;;;;;;;5043826;28;20048;-81
2023/05/02 13:55:08;;;;;;;5.43;1.48;;;;;;;;;;5056352;28;20087;-81
2023/05/02 13:57:34;;;;;;;8.98;1.50;;;;;;;;;;5079045;28;20090;-80
2023/05/02 14:00:00;;;;;;;5.97;1.20;;;;;;;;;;5055295;28;20036;-78
2023/05/02 14:02:27;;;;;;;3.40;1.38;;;;;;;;;;5046650;28;20044;-79
2023/05/02 14:04:53;;;;;;;3.85;1.00;;;;;;;;;;5053317;28;20068;-78
2023/05/02 14:07:19;;;;;;;4.15;1.13;;;;;;;;;;5053236;28;20044;-78
2023/05/02 14:09:45;;;;;;;4.20;1.20;;;;;;;;;;5066599;28;20048;-79
2023/05/02 14:12:11;;;;;;;2.38;0.98;;;;;;;;;;5057820;28;20052;-78
2023/05/02 14:14:37;;;;;;;6.35;1.45;;;;;;;;;;5055435;28;20045;-79
2023/05/02 14:17:04;;;;;;;5.57;1.10;;;;;;;;;;5075496;28;20088;-79
2023/05/02 14:19:30;;;;;;;6.18;1.13;;;;;;;;;;5060675;28;20090;-78
2023/05/02 14:21:56;;;;;;;3.53;1.10;;;;;;;;;;5059590;28;20044;-79
2023/05/02 14:24:22;;;;;;;4.70;1.42;;;;;;;;;;5046607;28;20066;-78
2023/05/02 14:26:48;;;;;;;5.35;1.00;;;;;;;;;;5051297;28;20051;-78
2023/05/02 14:29:14;;;;;;;5.45;1.20;;;;;;;;;;5052963;28;20044;-79
2023/05/02 14:31:40;;;;;;;5.75;1.15;;;;;;;;;;5058777;28;20127;-78
2023/05/02 14:34:06;;;;;;;5.18;1.02;;;;;;;;;;5051118;28;20048;-78
2023/05/02 14:36:32;;;;;;;4.55;1.00;;;;;;;;;;5053918;28;20048;-78
2023/05/02 14:38:58;;;;;;;4.22;0.95;;;;;;;;;;5054285;28;20196;-78